地図

経路データ

SID SEASON NUMBER BASIN SUBBASIN NAME ISO_TIME NATURE LAT LON WMO_WIND WMO_PRES WMO_AGENCY TRACK_TYPE DIST2LAND LANDFALL IFLAG USA_AGENCY USA_ATCF_ID USA_LAT USA_LON USA_RECORD USA_STATUS USA_WIND USA_PRES USA_SSHS USA_R34_NE USA_R34_SE USA_R34_SW USA_R34_NW USA_R50_NE USA_R50_SE USA_R50_SW USA_R50_NW USA_R64_NE USA_R64_SE USA_R64_SW USA_R64_NW USA_POCI USA_ROCI USA_RMW USA_EYE TOKYO_LAT TOKYO_LON TOKYO_GRADE TOKYO_WIND TOKYO_PRES TOKYO_R50_DIR TOKYO_R50_LONG TOKYO_R50_SHORT TOKYO_R30_DIR TOKYO_R30_LONG TOKYO_R30_SHORT TOKYO_LAND CMA_LAT CMA_LON CMA_CAT CMA_WIND CMA_PRES HKO_LAT HKO_LON HKO_CAT HKO_WIND HKO_PRES NEWDELHI_LAT NEWDELHI_LON NEWDELHI_GRADE NEWDELHI_WIND NEWDELHI_PRES NEWDELHI_CI NEWDELHI_DP NEWDELHI_POCI REUNION_LAT REUNION_LON REUNION_TYPE REUNION_WIND REUNION_PRES REUNION_TNUM REUNION_CI REUNION_RMW REUNION_R34_NE REUNION_R34_SE REUNION_R34_SW REUNION_R34_NW REUNION_R50_NE REUNION_R50_SE REUNION_R50_SW REUNION_R50_NW REUNION_R64_NE REUNION_R64_SE REUNION_R64_SW REUNION_R64_NW BOM_LAT BOM_LON BOM_TYPE BOM_WIND BOM_PRES BOM_TNUM BOM_CI BOM_RMW BOM_R34_NE BOM_R34_SE BOM_R34_SW BOM_R34_NW BOM_R50_NE BOM_R50_SE BOM_R50_SW BOM_R50_NW BOM_R64_NE BOM_R64_SE BOM_R64_SW BOM_R64_NW BOM_ROCI BOM_POCI BOM_EYE BOM_POS_METHOD BOM_PRES_METHOD NADI_LAT NADI_LON NADI_CAT NADI_WIND NADI_PRES WELLINGTON_LAT WELLINGTON_LON WELLINGTON_WIND WELLINGTON_PRES DS824_LAT DS824_LON DS824_STAGE DS824_WIND DS824_PRES TD9636_LAT TD9636_LON TD9636_STAGE TD9636_WIND TD9636_PRES TD9635_LAT TD9635_LON TD9635_WIND TD9635_PRES TD9635_ROCI NEUMANN_LAT NEUMANN_LON NEUMANN_CLASS NEUMANN_WIND NEUMANN_PRES MLC_LAT MLC_LON MLC_CLASS MLC_WIND MLC_PRES USA_GUST BOM_GUST BOM_GUST_PER REUNION_GUST REUNION_GUST_PER USA_SEAHGT USA_SEARAD_NE USA_SEARAD_SE USA_SEARAD_SW USA_SEARAD_NW STORM_SPEED STORM_DIR
1929339N11132 1929 74 WP MM NOT_NAMED 1929-12-05 10:00:00 NR 11.0000 131.700 main 635 590 __________O___ -1 11.0000 131.700 7 12 259
1929339N11132 1929 74 WP MM NOT_NAMED 1929-12-05 12:00:00 NR 10.9200 131.288 main 590 524 __________P___ -1 10.9200 131.288 7 12 259
1929339N11132 1929 74 WP MM NOT_NAMED 1929-12-05 15:00:00 NR 10.8044 130.669 main 524 449 __________P___ -1 10.8044 130.669 7 12 260
1929339N11132 1929 74 WP MM NOT_NAMED 1929-12-05 18:00:00 NR 10.7019 130.045 main 449 384 __________P___ -1 10.7019 130.045 7 12 262
1929339N11132 1929 74 WP MM NOT_NAMED 1929-12-05 21:00:00 NR 10.6208 129.413 main 384 364 __________P___ -1 10.6208 129.413 7 13 263
1929339N11132 1929 74 WP MM NOT_NAMED 1929-12-05 22:00:00 NR 10.6000 129.200 main 364 325 __________O___ -1 10.6000 129.200 3 13 265
1929339N11132 1929 74 WP MM NOT_NAMED 1929-12-06 00:00:00 NR 10.5686 128.770 main 325 254 __________P___ -1 10.5686 128.770 3 13 267
1929339N11132 1929 74 WP MM NOT_NAMED 1929-12-06 03:00:00 NR 10.5407 128.118 main 254 194 __________P___ -1 10.5407 128.118 3 13 268
1929339N11132 1929 74 WP MM NOT_NAMED 1929-12-06 06:00:00 NR 10.5246 127.465 main 194 122 __________P___ -1 10.5246 127.465 3 13 269
1929339N11132 1929 74 WP MM NOT_NAMED 1929-12-06 09:00:00 NR 10.5079 126.815 main 122 103 __________P___ -1 10.5079 126.815 3 13 268
1929339N11132 1929 74 WP MM NOT_NAMED 1929-12-06 10:00:00 NR 10.5000 126.600 main 103 71 __________O___ -1 10.5000 126.600 4 13 267
1929339N11132 1929 74 WP MM NOT_NAMED 1929-12-06 12:00:00 NR 10.4696 126.167 main 71 24 __________P___ -1 10.4696 126.167 4 13 266
1929339N11132 1929 74 WP MM NOT_NAMED 1929-12-06 15:00:00 NR 10.4178 125.524 main 24 0 __________P___ -1 10.4178 125.524 4 13 265
1929339N11132 1929 74 WP MM NOT_NAMED 1929-12-06 18:00:00 NR 10.3640 124.896 main 0 0 __________P___ -1 10.3640 124.896 4 12 265
1929339N11132 1929 74 WP MM NOT_NAMED 1929-12-06 21:00:00 NR 10.3145 124.294 main 22 15 __________P___ -1 10.3145 124.294 4 12 265
1929339N11132 1929 74 WP MM NOT_NAMED 1929-12-06 22:00:00 NR 10.3000 124.100 main 15 0 __________O___ -1 10.3000 124.100 4 11 266
1929339N11132 1929 74 WP MM NOT_NAMED 1929-12-07 00:00:00 NR 10.2773 123.727 main 0 0 __________P___ -1 10.2773 123.727 4 11 267
1929339N11132 1929 74 WP MM NOT_NAMED 1929-12-07 03:00:00 NR 10.2497 123.193 main 0 0 __________P___ -1 10.2497 123.193 4 10 267
1929339N11132 1929 74 WP MM NOT_NAMED 1929-12-07 06:00:00 NR 10.2274 122.678 main 21 21 __________P___ -1 10.2274 122.678 4 10 268
1929339N11132 1929 74 WP MM NOT_NAMED 1929-12-07 09:00:00 NR 10.2069 122.170 main 31 22 __________P___ -1 10.2069 122.170 4 10 268
1929339N11132 1929 74 WP MM NOT_NAMED 1929-12-07 10:00:00 NR 10.2000 122.000 main 22 22 __________O___ -1 10.2000 122.000 4 10 268
1929339N11132 1929 74 WP MM NOT_NAMED 1929-12-07 12:00:00 NR 10.1859 121.640 main 39 39 __________P___ -1 10.1859 121.640 4 11 268
1929339N11132 1929 74 WP MM NOT_NAMED 1929-12-07 15:00:00 NR 10.1649 121.099 main 90 90 __________P___ -1 10.1649 121.099 4 11 268
1929339N11132 1929 74 WP MM NOT_NAMED 1929-12-07 18:00:00 NR 10.1412 120.568 main 108 62 __________P___ -1 10.1412 120.568 4 10 267
1929339N11132 1929 74 WP MM NOT_NAMED 1929-12-07 21:00:00 NR 10.1117 120.062 main 62 46 __________P___ -1 10.1117 120.062 4 10 266
1929339N11132 1929 74 WP MM NOT_NAMED 1929-12-07 22:00:00 NR 10.1000 119.900 main 46 33 __________O___ -1 10.1000 119.900 4 9 264
1929339N11132 1929 74 WP MM NOT_NAMED 1929-12-08 00:00:00 NR 10.0668 119.599 main 33 11 __________P___ -1 10.0668 119.599 4 9 263
1929339N11132 1929 74 WP MM NOT_NAMED 1929-12-08 03:00:00 NR 10.0108 119.173 main 11 0 __________P___ -1 10.0108 119.173 4 8 262
1929339N11132 1929 74 WP MM NOT_NAMED 1929-12-08 06:00:00 NR 9.95580 118.761 main 0 0 __________P___ -1 9.95580 118.761 4 8 263
1929339N11132 1929 74 WP MM NOT_NAMED 1929-12-08 09:00:00 NR 9.91104 118.343 main 31 31 __________P___ -1 9.91104 118.343 4 8 264
1929339N11132 1929 74 WP MM NOT_NAMED 1929-12-08 10:00:00 NR 9.90000 118.200 main 39 39 __________O___ -1 9.90000 118.200 4 9 266
1929339N11132 1929 74 WP MM NOT_NAMED 1929-12-08 12:00:00 NR 9.88317 117.903 main 62 62 __________P___ -1 9.88317 117.903 4 9 268
1929339N11132 1929 74 WP MM NOT_NAMED 1929-12-08 15:00:00 NR 9.87051 117.444 main 89 89 __________P___ -1 9.87051 117.444 4 9 269
1929339N11132 1929 74 WP MM NOT_NAMED 1929-12-08 18:00:00 NR 9.87301 116.968 main 117 125 __________P___ -1 9.87301 116.968 4 10 271
1929339N11132 1929 74 WP MM NOT_NAMED 1929-12-08 21:00:00 NR 9.89071 116.471 main 156 164 __________P___ -1 9.89071 116.471 4 10 272
1929339N11132 1929 74 WP MM NOT_NAMED 1929-12-08 22:00:00 NR 9.90000 116.300 main 172 172 __________O___ -1 9.90000 116.300 4 10 274
1929339N11132 1929 74 WP MM NOT_NAMED 1929-12-09 00:00:00 NR 9.92711 115.948 main 208 208 __________P___ -1 9.92711 115.948 4 11 275
1929339N11132 1929 74 WP MM NOT_NAMED 1929-12-09 03:00:00 NR 9.98056 115.401 main 261 261 __________P___ -1 9.98056 115.401 4 11 276
1929339N11132 1929 74 WP MM NOT_NAMED 1929-12-09 06:00:00 NR 10.0382 114.842 main 316 316 __________P___ -1 10.0382 114.842 4 11 276
1929339N11132 1929 74 WP MM NOT_NAMED 1929-12-09 09:00:00 NR 10.0875 114.284 main 369 369 __________P___ -1 10.0875 114.284 4 11 275
1929339N11132 1929 74 WP MM NOT_NAMED 1929-12-09 10:00:00 NR 10.1000 114.100 main 389 389 __________O___ -1 10.1000 114.100 4 10 274
1929339N11132 1929 74 WP MM NOT_NAMED 1929-12-09 12:00:00 NR 10.1214 113.765 main 419 429 __________P___ -1 10.1214 113.765 4 10 273
1929339N11132 1929 74 WP MM NOT_NAMED 1929-12-09 15:00:00 NR 10.1414 113.270 main 470 432 __________P___ -1 10.1414 113.270 4 10 271
1929339N11132 1929 74 WP MM NOT_NAMED 1929-12-09 18:00:00 NR 10.1415 112.758 main 432 373 __________P___ -1 10.1415 112.758 4 11 269
1929339N11132 1929 74 WP MM NOT_NAMED 1929-12-09 21:00:00 NR 10.1155 112.201 main 373 354 __________P___ -1 10.1155 112.201 4 11 267
1929339N11132 1929 74 WP MM NOT_NAMED 1929-12-09 22:00:00 NR 10.1000 112.000 main 354 317 __________O___ -1 10.1000 112.000 4 13 265
1929339N11132 1929 74 WP MM NOT_NAMED 1929-12-10 00:00:00 NR 10.0642 111.557 main 317 251 __________P___ -1 10.0642 111.557 4 14 264
1929339N11132 1929 74 WP MM NOT_NAMED 1929-12-10 03:00:00 NR 9.98531 110.842 main 251 206 __________P___ -1 9.98531 110.842 4 15 263
1929339N11132 1929 74 WP MM NOT_NAMED 1929-12-10 06:00:00 NR 9.87895 110.094 main 206 172 __________P___ -1 9.87895 110.094 4 15 261
1929339N11132 1929 74 WP MM NOT_NAMED 1929-12-10 09:00:00 NR 9.74833 109.345 main 173 160 __________P___ -1 9.74833 109.345 4 15 260
1929339N11132 1929 74 WP MM NOT_NAMED 1929-12-10 10:00:00 NR 9.70000 109.100 main 160 139 __________O___ -1 9.70000 109.100 4 15 258
1929339N11132 1929 74 WP MM NOT_NAMED 1929-12-10 12:00:00 NR 9.59700 108.623 main 139 126 __________P___ -1 9.59700 108.623 4 14 257
1929339N11132 1929 74 WP MM NOT_NAMED 1929-12-10 15:00:00 NR 9.42926 107.934 main 129 88 __________P___ -1 9.42926 107.934 4 14 255
1929339N11132 1929 74 WP MM NOT_NAMED 1929-12-10 18:00:00 NR 9.24973 107.268 main 95 49 __________P___ -1 9.24973 107.268 4 14 254
1929339N11132 1929 74 WP MM NOT_NAMED 1929-12-10 21:00:00 NR 9.06304 106.616 main 49 49 __________P___ -1 9.06304 106.616 4 13 254
1929339N11132 1929 74 WP MM NOT_NAMED 1929-12-10 22:00:00 NR 9.00000 106.400 main 55 __________O___ -1 9.00000 106.400 7 13 254

デジタル台風データ・検索

IBTrACS Databaseについて

本データベースは、米国NOAAが公開する1842年以降の世界の熱帯低気圧のベストトラックデータアーカイブInternational Best Track Archive for Climate Stewardship (IBTrACS)を、ウェブで閲覧しやすい形式に変換したものです。

最終更新日:2021-12-06